Time;durP1;ratioP1;P1;durP2;ratioP2;P2;SDS_P1;SDS_P2;PMS_P1;PMS_P2;Temp;Humidity;BMP_temperature;BMP_pressure;BME280_temperature;BME280_humidity;BME280_pressure;Samples;Min_cycle;Max_cycle;Signal;HPM_P1;HPM_P2
2020/12/25 00:00:57;;;;;;;51.47;42.00;;;;;21.40;100617.00;;;;2077219;28;20259;-69
2020/12/25 00:01:57;;;;;;;52.37;42.23;;;;;21.40;100628.00;;;;2074272;28;20228;-69
2020/12/25 00:02:57;;;;;;;51.40;43.77;;;;;21.30;100627.00;;;;2077233;28;20218;-69
2020/12/25 00:03:58;;;;;;;48.67;43.37;;;;;21.30;100630.00;;;;2074449;28;20220;-67
2020/12/25 00:04:59;;;;;;;53.35;43.80;;;;;21.30;100632.00;;;;2076824;28;20874;-67
2020/12/25 00:05:59;;;;;;;53.83;45.07;;;;;21.30;100634.00;;;;2065983;28;20218;-68
2020/12/25 00:06:59;;;;;;;51.67;43.00;;;;;21.30;100634.00;;;;2068121;28;20234;-67
2020/12/25 00:08:00;;;;;;;46.40;39.90;;;;;21.30;100628.00;;;;2074753;28;20228;-69
2020/12/25 00:09:01;;;;;;;47.37;40.83;;;;;21.30;100636.00;;;;2076673;28;20217;-68
2020/12/25 00:10:01;;;;;;;47.03;40.60;;;;;21.30;100630.00;;;;2071700;28;20221;-68
2020/12/25 00:11:01;;;;;;;44.30;38.30;;;;;21.20;100639.00;;;;2073900;28;20614;-68
2020/12/25 00:12:01;;;;;;;44.20;38.37;;;;;21.20;100633.00;;;;2075693;28;20409;-67
2020/12/25 00:13:02;;;;;;;41.53;36.37;;;;;21.10;100628.00;;;;2075113;28;20299;-68
2020/12/25 00:14:03;;;;;;;40.83;35.00;;;;;21.20;100643.00;;;;2076315;28;20225;-68
2020/12/25 00:15:03;;;;;;;37.50;33.10;;;;;21.10;100641.00;;;;2075034;28;20222;-67
2020/12/25 00:16:03;;;;;;;39.43;33.83;;;;;21.10;100637.00;;;;2076342;28;20461;-67
2020/12/25 00:17:04;;;;;;;39.60;34.83;;;;;21.10;100640.00;;;;2075133;28;20249;-67
2020/12/25 00:18:04;;;;;;;37.87;31.93;;;;;21.10;100636.00;;;;2067232;28;20222;-67
2020/12/25 00:19:04;;;;;;;36.37;30.70;;;;;21.10;100643.00;;;;2066577;28;20281;-68
2020/12/25 00:20:05;;;;;;;36.07;29.93;;;;;21.10;100640.00;;;;2075866;28;20218;-68
2020/12/25 00:21:05;;;;;;;33.37;29.77;;;;;21.10;100645.00;;;;2076012;28;20225;-68
2020/12/25 00:22:06;;;;;;;33.90;28.57;;;;;21.10;100642.00;;;;2079773;28;20228;-68
2020/12/25 00:23:06;;;;;;;36.53;29.30;;;;;21.10;100650.00;;;;2079239;28;20229;-68
2020/12/25 00:24:07;;;;;;;31.43;28.03;;;;;21.00;100647.00;;;;2075902;28;20243;-68
2020/12/25 00:25:07;;;;;;;31.17;27.77;;;;;21.10;100646.00;;;;2075582;28;20231;-68
2020/12/25 00:26:08;;;;;;;32.33;26.70;;;;;21.00;100643.00;;;;2075709;28;20820;-65
2020/12/25 00:27:09;;;;;;;28.63;25.52;;;;;21.10;100642.00;;;;2075869;28;20343;-65
2020/12/25 00:28:09;;;;;;;31.33;25.70;;;;;21.10;100644.00;;;;2075371;28;20237;-65
2020/12/25 00:29:09;;;;;;;26.77;23.70;;;;;21.00;100652.00;;;;2075974;28;20224;-68
2020/12/25 00:30:10;;;;;;;29.43;24.50;;;;;21.00;100649.00;;;;2075283;28;20213;-67
2020/12/25 00:31:10;;;;;;;25.97;22.93;;;;;21.00;100639.00;;;;2075902;28;20217;-67
2020/12/25 00:32:10;;;;;;;25.50;22.80;;;;;21.00;100654.00;;;;2075319;28;20714;-67
2020/12/25 00:33:11;;;;;;;27.27;24.27;;;;;20.90;100651.00;;;;2076012;28;20696;-68
2020/12/25 00:34:11;;;;;;;24.60;22.03;;;;;20.90;100660.00;;;;2075007;28;20213;-67
2020/12/25 00:35:11;;;;;;;25.17;22.37;;;;;20.90;100657.00;;;;2075818;28;20423;-68
2020/12/25 00:36:12;;;;;;;24.67;21.57;;;;;20.90;100662.00;;;;2075227;28;20223;-68
2020/12/25 00:37:12;;;;;;;24.80;22.03;;;;;20.90;100664.00;;;;2067688;28;20308;-68
2020/12/25 00:38:12;;;;;;;23.80;20.57;;;;;20.90;100663.00;;;;2071017;28;20229;-67
2020/12/25 00:39:14;;;;;;;24.67;20.50;;;;;20.90;100663.00;;;;2079916;28;20224;-68
2020/12/25 00:40:14;;;;;;;26.38;20.42;;;;;21.00;100658.00;;;;2074715;28;20591;-68
2020/12/25 00:41:14;;;;;;;22.70;19.40;;;;;20.90;100661.00;;;;2076703;28;20221;-67
2020/12/25 00:42:15;;;;;;;21.80;18.37;;;;;20.90;100681.00;;;;2074701;28;20247;-67
2020/12/25 00:43:15;;;;;;;20.70;18.50;;;;;20.90;100665.00;;;;2076909;28;20267;-68
2020/12/25 00:44:16;;;;;;;20.57;18.17;;;;;20.90;100658.00;;;;2074820;28;20269;-68
2020/12/25 00:45:16;;;;;;;22.23;19.23;;;;;20.90;100668.00;;;;2076613;28;20604;-68
2020/12/25 00:46:16;;;;;;;21.37;17.40;;;;;20.90;100668.00;;;;2074581;28;20220;-68
2020/12/25 00:47:17;;;;;;;23.10;18.10;;;;;20.90;100675.00;;;;2077096;28;20232;-68
2020/12/25 00:48:17;;;;;;;19.27;16.00;;;;;20.90;100675.00;;;;2074244;28;20233;-68
2020/12/25 00:49:19;;;;;;;18.70;16.30;;;;;20.90;100676.00;;;;2076856;28;20229;-68
2020/12/25 00:50:19;;;;;;;17.83;15.93;;;;;20.90;100670.00;;;;2073694;28;20755;-68
2020/12/25 00:51:20;;;;;;;18.77;16.03;;;;;20.90;100674.00;;;;2077806;28;20218;-68
2020/12/25 00:52:24;;;;;;;17.17;15.00;;;;;20.80;100663.00;;;;2079445;28;20237;-68
2020/12/25 00:53:24;;;;;;;17.40;14.68;;;;;20.90;100675.00;;;;2079550;28;20220;-68
2020/12/25 00:54:24;;;;;;;16.77;13.97;;;;;20.80;100656.00;;;;2073342;28;20616;-68
2020/12/25 00:55:24;;;;;;;16.17;14.47;;;;;20.80;100671.00;;;;2077558;28;20630;-68
2020/12/25 00:56:25;;;;;;;15.80;14.10;;;;;20.80;100664.00;;;;2073080;28;20220;-68
2020/12/25 00:57:25;;;;;;;14.30;12.90;;;;;20.80;100661.00;;;;2078014;28;20243;-68
2020/12/25 00:58:25;;;;;;;16.30;13.70;;;;;20.80;100675.00;;;;2073167;28;25458;-68
2020/12/25 00:59:26;;;;;;;14.83;13.23;;;;;20.90;100669.00;;;;2079383;28;20220;-68
2020/12/25 01:00:26;;;;;;;14.23;12.00;;;;;20.80;100675.00;;;;2074544;28;20303;-68
2020/12/25 01:01:26;;;;;;;13.13;11.73;;;;;20.80;100670.00;;;;2079893;28;20251;-69
2020/12/25 01:02:28;;;;;;;13.57;11.87;;;;;20.80;100680.00;;;;2065774;28;20220;-69
2020/12/25 01:03:28;;;;;;;14.43;12.32;;;;;20.80;100683.00;;;;2063337;28;21219;-68
2020/12/25 01:04:29;;;;;;;13.10;11.67;;;;;20.80;100673.00;;;;2071449;28;20225;-68
2020/12/25 01:05:29;;;;;;;13.97;12.17;;;;;20.80;100676.00;;;;2072304;28;20255;-68
2020/12/25 01:06:29;;;;;;;12.20;10.90;;;;;20.80;100676.00;;;;2065275;28;20220;-68
2020/12/25 01:07:30;;;;;;;12.90;11.50;;;;;20.80;100683.00;;;;2071124;28;20224;-68
2020/12/25 01:08:31;;;;;;;13.80;10.70;;;;;20.70;100684.00;;;;2064402;28;20779;-68
2020/12/25 01:09:31;;;;;;;13.47;11.30;;;;;20.80;100685.00;;;;2071689;28;20936;-68
2020/12/25 01:10:31;;;;;;;12.90;10.60;;;;;20.80;100688.00;;;;2081073;28;20240;-68
2020/12/25 01:11:32;;;;;;;11.77;10.20;;;;;20.80;100689.00;;;;2073926;28;20239;-68
2020/12/25 01:12:32;;;;;;;11.20;10.00;;;;;20.80;100685.00;;;;2079857;28;20220;-68
2020/12/25 01:13:33;;;;;;;13.50;10.67;;;;;20.70;100685.00;;;;2081047;28;20361;-68
2020/12/25 01:14:33;;;;;;;11.30;9.53;;;;;20.70;100691.00;;;;2064731;28;20264;-68
2020/12/25 01:15:33;;;;;;;11.60;10.40;;;;;20.70;100700.00;;;;2071757;28;20506;-68
2020/12/25 01:16:34;;;;;;;10.23;9.13;;;;;20.70;100690.00;;;;2073444;28;20220;-68
2020/12/25 01:17:34;;;;;;;10.10;9.07;;;;;20.70;100705.00;;;;2080665;28;20219;-68
2020/12/25 01:18:35;;;;;;;11.90;9.20;;;;;20.70;100703.00;;;;2073229;28;20616;-69
2020/12/25 01:19:35;;;;;;;10.13;8.97;;;;;20.70;100700.00;;;;2071980;28;20221;-68
2020/12/25 01:20:36;;;;;;;9.80;8.80;;;;;20.70;100696.00;;;;2064426;28;20218;-68
2020/12/25 01:21:36;;;;;;;10.80;9.10;;;;;20.70;100693.00;;;;2080807;28;20258;-68
2020/12/25 01:22:36;;;;;;;8.30;7.23;;;;;20.60;100703.00;;;;2081169;28;20271;-68
2020/12/25 01:23:36;;;;;;;9.03;8.13;;;;;20.70;100712.00;;;;2081149;28;20221;-68
2020/12/25 01:24:37;;;;;;;10.80;9.00;;;;;20.70;100712.00;;;;2072825;28;20279;-68
2020/12/25 01:25:37;;;;;;;11.80;8.73;;;;;20.70;100717.00;;;;2079883;28;20227;-69
2020/12/25 01:26:38;;;;;;;9.30;7.90;;;;;20.70;100715.00;;;;2073019;28;20232;-68
2020/12/25 01:27:38;;;;;;;8.27;7.47;;;;;20.60;100720.00;;;;2081015;28;20235;-68
2020/12/25 01:28:38;;;;;;;8.83;7.80;;;;;20.70;100723.00;;;;2073119;28;20217;-68
2020/12/25 01:29:39;;;;;;;7.63;6.83;;;;;20.60;100722.00;;;;2080824;28;20680;-68
2020/12/25 01:30:39;;;;;;;8.80;7.63;;;;;20.60;100720.00;;;;2073006;28;20284;-68
2020/12/25 01:31:39;;;;;;;8.33;7.10;;;;;20.60;100721.00;;;;2080538;28;20651;-68
2020/12/25 01:32:40;;;;;;;8.33;7.37;;;;;20.60;100727.00;;;;2072582;28;20221;-68
2020/12/25 01:33:40;;;;;;;7.73;7.00;;;;;20.60;100724.00;;;;2080776;28;20610;-68
2020/12/25 01:34:40;;;;;;;8.10;7.30;;;;;20.70;100729.00;;;;2073183;28;20587;-68
2020/12/25 01:35:41;;;;;;;7.57;6.60;;;;;20.60;100735.00;;;;2080459;28;20213;-68
2020/12/25 01:36:41;;;;;;;7.23;6.53;;;;;20.60;100734.00;;;;2058200;28;20298;-68
2020/12/25 01:37:41;;;;;;;7.47;6.67;;;;;20.60;100730.00;;;;2063182;28;20249;-68
2020/12/25 01:38:42;;;;;;;8.50;7.20;;;;;20.60;100744.00;;;;2060796;28;20221;-68
2020/12/25 01:39:42;;;;;;;6.43;5.47;;;;;20.60;100744.00;;;;2080504;28;20217;-68
2020/12/25 01:40:42;;;;;;;6.73;6.03;;;;;20.60;100743.00;;;;2072856;28;20228;-68
2020/12/25 01:41:42;;;;;;;6.70;5.70;;;;;20.50;100746.00;;;;2080499;28;20614;-68
2020/12/25 01:42:43;;;;;;;6.93;5.83;;;;;20.50;100739.00;;;;2073640;28;20255;-68
2020/12/25 01:43:43;;;;;;;6.97;5.60;;;;;20.50;100746.00;;;;2080217;28;20281;-68
2020/12/25 01:44:43;;;;;;;5.97;5.00;;;;;20.60;100759.00;;;;2064831;28;20217;-68
2020/12/25 01:45:44;;;;;;;6.57;5.50;;;;;20.60;100754.00;;;;2071473;28;20310;-68
2020/12/25 01:46:44;;;;;;;6.97;5.20;;;;;20.60;100761.00;;;;2072743;28;20214;-69
2020/12/25 01:47:44;;;;;;;6.37;5.13;;;;;20.50;100763.00;;;;2073444;28;20272;-68
2020/12/25 01:48:45;;;;;;;6.60;5.30;;;;;20.50;100766.00;;;;2071305;28;20241;-68
2020/12/25 01:49:45;;;;;;;5.20;4.70;;;;;20.50;100766.00;;;;2057040;28;20222;-68
2020/12/25 01:50:45;;;;;;;6.30;5.00;;;;;20.50;100763.00;;;;2071646;28;20233;-68
2020/12/25 01:51:46;;;;;;;6.23;5.00;;;;;20.50;100758.00;;;;2064850;28;20296;-69
2020/12/25 01:52:47;;;;;;;6.23;5.10;;;;;20.50;100753.00;;;;2056730;28;20223;-68
2020/12/25 01:53:47;;;;;;;5.85;4.93;;;;;20.50;100757.00;;;;2055849;28;20222;-69
2020/12/25 01:54:47;;;;;;;5.80;4.67;;;;;20.50;100752.00;;;;2062833;28;20595;-68
2020/12/25 01:55:48;;;;;;;6.80;5.07;;;;;20.50;100765.00;;;;2057511;28;20323;-68
2020/12/25 01:56:49;;;;;;;6.03;4.50;;;;;20.50;100756.00;;;;2057685;28;20248;-68
2020/12/25 01:57:49;;;;;;;5.60;4.63;;;;;20.50;100762.00;;;;2062508;28;20211;-68
2020/12/25 01:58:49;;;;;;;5.57;4.40;;;;;20.50;100761.00;;;;2050090;28;20224;-68
2020/12/25 01:59:51;;;;;;;5.33;4.23;;;;;20.50;100766.00;;;;2064063;28;20253;-68
2020/12/25 02:00:51;;;;;;;4.95;4.10;;;;;20.50;100770.00;;;;2080854;28;20224;-68
2020/12/25 02:01:51;;;;;;;6.10;4.20;;;;;20.50;100770.00;;;;2070208;28;20226;-68
2020/12/25 02:02:52;;;;;;;5.50;4.30;;;;;20.50;100775.00;;;;2057915;28;20718;-68
2020/12/25 02:03:52;;;;;;;4.63;3.77;;;;;20.50;100775.00;;;;2072027;28;20228;-68
2020/12/25 02:04:53;;;;;;;5.57;4.00;;;;;20.50;100777.00;;;;2072063;28;20642;-68
2020/12/25 02:05:53;;;;;;;4.90;4.00;;;;;20.50;100779.00;;;;2074157;28;20588;-68
2020/12/25 02:06:53;;;;;;;4.40;3.50;;;;;20.50;100783.00;;;;2080769;28;20269;-68
2020/12/25 02:07:56;;;;;;;4.10;3.70;;;;;20.40;100780.00;;;;2071885;28;20303;-68
2020/12/25 02:08:56;;;;;;;4.55;3.53;;;;;20.40;100789.00;;;;2072490;28;20703;-68
2020/12/25 02:09:57;;;;;;;5.90;4.20;;;;;20.40;100786.00;;;;2081001;28;20217;-68
2020/12/25 02:10:57;;;;;;;5.93;4.17;;;;;20.40;100762.00;;;;2069448;28;20249;-68
2020/12/25 02:11:57;;;;;;;5.23;3.70;;;;;20.40;100775.00;;;;2064167;28;20229;-68
2020/12/25 02:12:58;;;;;;;5.50;3.67;;;;;20.40;100777.00;;;;2064036;28;20666;-68
2020/12/25 02:13:58;;;;;;;4.37;3.87;;;;;20.50;100776.00;;;;2066766;28;20580;-68
2020/12/25 02:14:58;;;;;;;4.57;3.30;;;;;20.40;100785.00;;;;2069278;28;20708;-68
2020/12/25 02:15:59;;;;;;;3.50;3.17;;;;;20.40;100778.00;;;;2066792;28;20739;-68
2020/12/25 02:16:59;;;;;;;5.73;3.60;;;;;20.40;100781.00;;;;2078038;28;20201;-68
2020/12/25 02:17:59;;;;;;;3.83;3.30;;;;;20.40;100790.00;;;;2075458;28;20207;-68
2020/12/25 02:18:59;;;;;;;4.33;3.20;;;;;20.40;100783.00;;;;2077815;28;20208;-68
2020/12/25 02:20:02;;;;;;;3.30;2.70;;;;;20.40;100787.00;;;;2075641;28;20300;-68
2020/12/25 02:21:03;;;;;;;4.93;3.47;;;;;20.40;100790.00;;;;2074317;28;20221;-68
2020/12/25 02:22:04;;;;;;;4.87;3.10;;;;;20.40;100790.00;;;;2076249;28;20217;-68
2020/12/25 02:23:04;;;;;;;4.07;2.80;;;;;20.40;100787.00;;;;2077165;28;20226;-68
2020/12/25 02:24:04;;;;;;;3.40;2.90;;;;;20.40;100797.00;;;;2067324;28;20734;-69
2020/12/25 02:25:05;;;;;;;4.07;3.30;;;;;20.40;100797.00;;;;2068097;28;20704;-68
2020/12/25 02:26:05;;;;;;;4.07;3.27;;;;;20.40;100801.00;;;;2072638;28;20229;-68
2020/12/25 02:27:05;;;;;;;4.30;2.87;;;;;20.40;100801.00;;;;2067411;28;20550;-68
2020/12/25 02:28:06;;;;;;;4.90;3.33;;;;;20.40;100797.00;;;;2067976;28;20735;-68
2020/12/25 02:29:06;;;;;;;3.67;3.37;;;;;20.40;100805.00;;;;2072389;28;20691;-68
2020/12/25 02:30:06;;;;;;;3.20;2.57;;;;;20.40;100796.00;;;;2076238;28;20204;-68
2020/12/25 02:31:07;;;;;;;3.50;2.70;;;;;20.40;100771.00;;;;2076718;28;20616;-69
2020/12/25 02:32:07;;;;;;;3.80;2.97;;;;;20.40;100799.00;;;;2076413;28;20606;-68
2020/12/25 02:33:07;;;;;;;4.43;2.63;;;;;20.40;100807.00;;;;2076575;28;20305;-68
2020/12/25 02:34:08;;;;;;;3.93;2.60;;;;;20.40;100803.00;;;;2076510;28;20216;-68
2020/12/25 02:35:08;;;;;;;4.17;2.63;;;;;20.30;100803.00;;;;2076256;28;20331;-68
2020/12/25 02:36:08;;;;;;;3.13;2.50;;;;;20.30;100805.00;;;;2076504;28;20229;-68
2020/12/25 02:37:09;;;;;;;3.90;2.80;;;;;20.30;100799.00;;;;2080105;28;20625;-68
2020/12/25 02:38:09;;;;;;;2.87;2.57;;;;;20.30;100804.00;;;;2080359;28;20235;-68
2020/12/25 02:39:09;;;;;;;3.87;2.57;;;;;20.30;100803.00;;;;2080463;28;20215;-68
2020/12/25 02:40:10;;;;;;;2.53;2.13;;;;;20.30;100816.00;;;;2076223;28;20263;-69
2020/12/25 02:41:10;;;;;;;3.47;2.70;;;;;20.30;100810.00;;;;2076835;28;20246;-68
2020/12/25 02:42:11;;;;;;;4.70;2.70;;;;;20.30;100809.00;;;;2076116;28;20594;-68
2020/12/25 02:43:11;;;;;;;3.33;2.20;;;;;20.30;100811.00;;;;2077014;28;20221;-68
2020/12/25 02:44:12;;;;;;;2.80;2.43;;;;;20.30;100807.00;;;;2075948;28;20458;-68
2020/12/25 02:45:12;;;;;;;3.90;2.30;;;;;20.40;100805.00;;;;2076873;28;20239;-68
2020/12/25 02:46:12;;;;;;;4.37;2.57;;;;;20.30;100810.00;;;;2067026;28;20237;-68
2020/12/25 02:47:13;;;;;;;4.20;2.40;;;;;20.40;100816.00;;;;2068328;28;20703;-68
2020/12/25 02:48:13;;;;;;;3.60;2.30;;;;;20.40;100816.00;;;;2076520;28;20724;-68
2020/12/25 02:49:13;;;;;;;2.90;2.20;;;;;20.40;100823.00;;;;2080382;28;20707;-68
2020/12/25 02:50:14;;;;;;;2.70;1.90;;;;;20.30;100821.00;;;;2075433;28;20267;-68
2020/12/25 02:51:18;;;;;;;3.63;2.60;;;;;20.30;100828.00;;;;2076974;28;20793;-68
2020/12/25 02:52:18;;;;;;;4.05;2.00;;;;;20.30;100821.00;;;;2056260;28;20712;-68
2020/12/25 02:53:18;;;;;;;4.97;2.10;;;;;20.30;100830.00;;;;2069040;28;20224;-68
2020/12/25 02:54:19;;;;;;;4.83;2.73;;;;;20.30;100825.00;;;;2066237;28;20760;-68
2020/12/25 02:55:19;;;;;;;3.10;2.30;;;;;20.30;100826.00;;;;2069004;28;20228;-68
2020/12/25 02:56:19;;;;;;;2.80;2.10;;;;;20.30;100824.00;;;;2074666;28;20212;-68
2020/12/25 02:57:20;;;;;;;3.03;2.20;;;;;20.20;100820.00;;;;2077915;28;20208;-69
2020/12/25 02:58:20;;;;;;;4.23;2.07;;;;;20.20;100829.00;;;;2074610;28;20311;-68
2020/12/25 02:59:20;;;;;;;2.37;2.07;;;;;20.30;100825.00;;;;2077804;28;20210;-68
2020/12/25 03:00:21;;;;;;;2.60;2.00;;;;;20.20;100824.00;;;;2074441;28;20251;-68
2020/12/25 03:01:21;;;;;;;3.20;1.60;;;;;20.20;100830.00;;;;2077891;28;20310;-68
2020/12/25 03:02:21;;;;;;;3.97;2.03;;;;;20.20;100827.00;;;;2074366;28;20275;-68
2020/12/25 03:03:22;;;;;;;4.43;2.00;;;;;20.20;100828.00;;;;2069309;28;20219;-69
2020/12/25 03:04:22;;;;;;;3.63;2.33;;;;;20.30;100831.00;;;;2057552;28;20233;-69
2020/12/25 03:05:22;;;;;;;3.50;2.20;;;;;20.20;100834.00;;;;2069468;28;20276;-68
2020/12/25 03:06:23;;;;;;;2.17;1.63;;;;;20.20;100844.00;;;;2071060;28;20231;-68
2020/12/25 03:07:23;;;;;;;3.70;2.13;;;;;20.20;100843.00;;;;2071432;28;20217;-68
2020/12/25 03:08:23;;;;;;;3.17;1.93;;;;;20.20;100847.00;;;;2080085;28;20222;-68
2020/12/25 03:09:24;;;;;;;2.40;2.03;;;;;20.20;100839.00;;;;2080205;28;20235;-68
2020/12/25 03:10:24;;;;;;;2.60;1.80;;;;;20.20;100846.00;;;;2073860;28;20238;-68
2020/12/25 03:11:24;;;;;;;3.77;1.70;;;;;20.20;100856.00;;;;2078413;28;20223;-68
2020/12/25 03:12:25;;;;;;;3.73;1.90;;;;;20.20;100854.00;;;;2073990;28;20219;-68
2020/12/25 03:13:25;;;;;;;5.37;1.60;;;;;20.20;100848.00;;;;2078569;28;20687;-68
2020/12/25 03:14:25;;;;;;;2.40;1.83;;;;;20.20;100853.00;;;;2073845;28;20236;-68
2020/12/25 03:15:26;;;;;;;3.40;2.00;;;;;20.20;100851.00;;;;2078443;28;20905;-68
2020/12/25 03:16:26;;;;;;;2.43;1.70;;;;;20.20;100856.00;;;;2073415;28;20703;-68
2020/12/25 03:17:26;;;;;;;2.40;1.57;;;;;20.20;100857.00;;;;2078783;28;20574;-68
2020/12/25 03:18:27;;;;;;;3.27;1.60;;;;;20.20;100856.00;;;;2073571;28;20257;-68
2020/12/25 03:19:27;;;;;;;3.30;1.70;;;;;20.20;100862.00;;;;2078682;28;20215;-68
2020/12/25 03:20:27;;;;;;;2.50;1.90;;;;;20.20;100855.00;;;;2080290;28;20218;-68
2020/12/25 03:21:28;;;;;;;1.87;1.53;;;;;20.20;100865.00;;;;2073130;28;20714;-68
2020/12/25 03:22:28;;;;;;;4.53;2.00;;;;;20.20;100858.00;;;;2070077;28;20703;-68
2020/12/25 03:23:28;;;;;;;4.37;1.90;;;;;20.20;100867.00;;;;2064734;28;20707;-68
2020/12/25 03:24:29;;;;;;;2.37;1.87;;;;;20.10;100861.00;;;;2078717;28;20713;-68
2020/12/25 03:25:29;;;;;;;2.90;1.73;;;;;20.20;100863.00;;;;2073180;28;20220;-68
2020/12/25 03:26:29;;;;;;;2.80;1.70;;;;;20.20;100872.00;;;;2079178;28;20230;-68
2020/12/25 03:27:30;;;;;;;2.87;1.53;;;;;20.20;100867.00;;;;2073134;28;20212;-69
2020/12/25 03:28:30;;;;;;;2.83;1.40;;;;;20.20;100869.00;;;;2070542;28;20216;-68
2020/12/25 03:29:30;;;;;;;3.43;1.80;;;;;20.20;100877.00;;;;2064292;28;20217;-68
2020/12/25 03:30:31;;;;;;;2.80;1.63;;;;;20.20;100874.00;;;;2079066;28;20286;-69
2020/12/25 03:31:31;;;;;;;2.93;1.70;;;;;20.10;100870.00;;;;2073107;28;20203;-69
2020/12/25 03:32:31;;;;;;;3.50;1.90;;;;;20.10;100877.00;;;;2079390;28;20298;-69
2020/12/25 03:33:32;;;;;;;1.80;1.40;;;;;20.10;100874.00;;;;2072901;28;20251;-68
2020/12/25 03:34:32;;;;;;;2.70;1.60;;;;;20.10;100874.00;;;;2079319;28;20212;-68
2020/12/25 03:35:32;;;;;;;5.53;1.60;;;;;20.10;100868.00;;;;2072701;28;20212;-68
2020/12/25 03:36:33;;;;;;;3.20;1.87;;;;;20.10;100873.00;;;;2070672;28;20207;-68
2020/12/25 03:37:33;;;;;;;2.50;1.63;;;;;20.10;100874.00;;;;2071466;28;20733;-69
2020/12/25 03:38:34;;;;;;;3.50;1.60;;;;;20.10;100868.00;;;;2071549;28;20262;-68
2020/12/25 03:39:34;;;;;;;2.37;1.57;;;;;20.10;100872.00;;;;2071342;28;20208;-68
2020/12/25 03:40:34;;;;;;;1.87;1.47;;;;;20.10;100867.00;;;;2079589;28;20227;-68
2020/12/25 03:41:35;;;;;;;3.33;1.70;;;;;20.10;100878.00;;;;2072447;28;20208;-68
2020/12/25 03:42:35;;;;;;;2.53;1.70;;;;;20.10;100869.00;;;;2079235;28;20261;-69
2020/12/25 03:43:35;;;;;;;3.13;1.70;;;;;20.10;100868.00;;;;2072216;28;20220;-68
2020/12/25 03:44:36;;;;;;;2.57;1.63;;;;;20.10;100876.00;;;;2079675;28;20223;-68
2020/12/25 03:45:36;;;;;;;2.30;1.33;;;;;20.10;100881.00;;;;2072211;28;20596;-66
2020/12/25 03:46:36;;;;;;;3.20;1.70;;;;;20.10;100874.00;;;;2079776;28;20689;-68
2020/12/25 03:47:37;;;;;;;3.07;1.70;;;;;20.10;100879.00;;;;2079870;28;20701;-68
2020/12/25 03:48:37;;;;;;;4.07;1.53;;;;;20.10;100885.00;;;;2063444;28;20239;-68
2020/12/25 03:49:37;;;;;;;2.03;1.60;;;;;20.10;100889.00;;;;2071360;28;20220;-68
2020/12/25 03:50:38;;;;;;;2.90;1.40;;;;;20.10;100882.00;;;;2079756;28;20727;-68
2020/12/25 03:51:38;;;;;;;2.90;1.73;;;;;20.10;100892.00;;;;2071865;28;20785;-68
2020/12/25 03:52:38;;;;;;;3.00;1.33;;;;;20.00;100889.00;;;;2080023;28;20220;-68
2020/12/25 03:53:39;;;;;;;2.97;1.40;;;;;20.10;100888.00;;;;2063419;28;20221;-68
2020/12/25 03:54:39;;;;;;;2.97;1.50;;;;;20.10;100889.00;;;;2071245;28;20220;-68
2020/12/25 03:55:40;;;;;;;4.40;1.60;;;;;20.00;100892.00;;;;2071132;28;20270;-68
2020/12/25 03:56:40;;;;;;;4.60;1.70;;;;;20.00;100900.00;;;;2063509;28;20217;-68
2020/12/25 03:57:40;;;;;;;1.87;1.40;;;;;20.10;100895.00;;;;2071022;28;20217;-68
2020/12/25 03:58:40;;;;;;;2.17;1.47;;;;;20.10;100899.00;;;;2072171;28;20220;-68
2020/12/25 03:59:41;;;;;;;2.50;1.37;;;;;20.00;100890.00;;;;2078824;28;20207;-68
2020/12/25 04:00:41;;;;;;;3.40;1.37;;;;;20.10;100893.00;;;;2079521;28;20339;-68
2020/12/25 04:01:41;;;;;;;2.43;1.37;;;;;20.10;100893.00;;;;2071195;28;20212;-68
2020/12/25 04:02:42;;;;;;;3.37;1.50;;;;;20.10;100892.00;;;;2062805;28;20221;-68
2020/12/25 04:03:42;;;;;;;2.73;1.33;;;;;20.00;100898.00;;;;2069771;28;20235;-69
2020/12/25 04:04:42;;;;;;;4.13;1.77;;;;;20.00;100896.00;;;;2079490;28;20246;-67
2020/12/25 04:05:43;;;;;;;4.10;1.43;;;;;20.00;100891.00;;;;2078720;28;20224;-67
2020/12/25 04:06:43;;;;;;;4.10;1.97;;;;;20.00;100898.00;;;;2072322;28;20295;-67
2020/12/25 04:07:43;;;;;;;2.77;1.50;;;;;20.00;100889.00;;;;2078657;28;20752;-67
2020/12/25 04:08:44;;;;;;;4.60;2.20;;;;;20.00;100902.00;;;;2072266;28;20680;-67
2020/12/25 04:09:45;;;;;;;2.00;1.20;;;;;20.10;100904.00;;;;2078902;28;20622;-67
2020/12/25 04:10:45;;;;;;;2.93;1.37;;;;;20.00;100906.00;;;;2054884;28;20481;-67
2020/12/25 04:11:48;;;;;;;2.47;1.30;;;;;20.00;100908.00;;;;2069625;28;20223;-67
2020/12/25 04:12:48;;;;;;;2.80;1.40;;;;;20.10;100911.00;;;;2071464;28;20224;-67
2020/12/25 04:13:48;;;;;;;2.83;1.50;;;;;20.00;100907.00;;;;2076770;28;20597;-68
2020/12/25 04:14:49;;;;;;;1.77;1.50;;;;;20.00;100906.00;;;;2072259;28;20221;-67
2020/12/25 04:15:49;;;;;;;2.70;1.50;;;;;20.00;100909.00;;;;2068885;28;20315;-67
2020/12/25 04:16:49;;;;;;;4.50;1.17;;;;;19.90;100902.00;;;;2064301;28;20213;-67
2020/12/25 04:17:50;;;;;;;4.23;1.40;;;;;20.00;100892.00;;;;2077962;28;20285;-67
2020/12/25 04:18:50;;;;;;;4.17;1.33;;;;;19.90;100897.00;;;;2072784;28;20225;-67
2020/12/25 04:19:50;;;;;;;2.67;1.37;;;;;20.00;100903.00;;;;2074892;28;20220;-67
2020/12/25 04:20:51;;;;;;;2.90;1.40;;;;;20.00;100917.00;;;;2072583;28;20221;-67
2020/12/25 04:21:51;;;;;;;2.53;1.30;;;;;19.90;100904.00;;;;2076968;28;20215;-67
2020/12/25 04:22:51;;;;;;;2.70;1.30;;;;;19.90;100907.00;;;;2072996;28;20682;-67
2020/12/25 04:23:52;;;;;;;3.03;1.20;;;;;20.00;100907.00;;;;2077444;28;20762;-67
2020/12/25 04:24:52;;;;;;;2.93;1.27;;;;;20.00;100919.00;;;;2063825;28;20695;-67
2020/12/25 04:25:52;;;;;;;3.40;1.30;;;;;20.00;100908.00;;;;2068352;28;20273;-67
2020/12/25 04:26:53;;;;;;;3.10;1.57;;;;;19.90;100913.00;;;;2072740;28;20224;-67
2020/12/25 04:27:53;;;;;;;3.30;1.53;;;;;19.90;100906.00;;;;2077051;28;20223;-67
2020/12/25 04:28:53;;;;;;;2.43;1.50;;;;;20.00;100920.00;;;;2073201;28;20321;-67
2020/12/25 04:29:54;;;;;;;2.77;1.33;;;;;20.00;100912.00;;;;2079424;28;20206;-67
2020/12/25 04:30:54;;;;;;;3.07;1.50;;;;;19.90;100921.00;;;;2079445;28;20226;-67
2020/12/25 04:31:54;;;;;;;3.13;1.20;;;;;19.90;100908.00;;;;2079574;28;20208;-67
2020/12/25 04:32:55;;;;;;;2.67;1.30;;;;;20.00;100920.00;;;;2077334;28;20299;-67
2020/12/25 04:33:55;;;;;;;2.80;1.37;;;;;19.90;100915.00;;;;2073057;28;20221;-67
2020/12/25 04:34:55;;;;;;;3.80;1.77;;;;;19.90;100931.00;;;;2077131;28;20214;-67
2020/12/25 04:35:56;;;;;;;2.53;1.27;;;;;20.00;100936.00;;;;2073980;28;20719;-69
2020/12/25 04:36:56;;;;;;;2.30;1.50;;;;;20.00;100924.00;;;;2077257;28;20221;-69
2020/12/25 04:37:57;;;;;;;3.90;1.53;;;;;19.90;100927.00;;;;2073993;28;20217;-67
2020/12/25 04:38:57;;;;;;;3.10;1.27;;;;;19.90;100923.00;;;;2077180;28;20698;-67
2020/12/25 04:39:57;;;;;;;3.30;1.50;;;;;19.90;100930.00;;;;2074179;28;21345;-67
2020/12/25 04:40:58;;;;;;;2.87;1.77;;;;;19.90;100939.00;;;;2076663;28;20696;-67
2020/12/25 04:41:59;;;;;;;3.23;1.30;;;;;19.90;100941.00;;;;2074348;28;21020;-67
2020/12/25 04:42:59;;;;;;;3.27;1.40;;;;;19.90;100942.00;;;;2068042;28;20229;-66
2020/12/25 04:44:00;;;;;;;2.90;1.63;;;;;19.90;100892.00;;;;2055608;28;20213;-66
2020/12/25 04:45:00;;;;;;;2.53;1.30;;;;;19.80;100939.00;;;;2070683;28;20763;-67
2020/12/25 04:46:02;;;;;;;2.87;1.40;;;;;19.90;100940.00;;;;2057852;28;20217;-66
2020/12/25 04:47:11;;;;;;;3.42;1.42;;;;;19.90;100958.00;;;;2059800;28;20253;-67
2020/12/25 04:48:12;;;;;;;1.95;1.33;;;;;19.90;100950.00;;;;2067327;28;20205;-67
2020/12/25 04:49:12;;;;;;;2.47;1.30;;;;;19.90;100947.00;;;;2071064;28;20809;-67
2020/12/25 04:50:12;;;;;;;5.23;1.60;;;;;19.90;100946.00;;;;2066254;28;20221;-67
2020/12/25 04:51:13;;;;;;;2.60;1.37;;;;;19.80;100954.00;;;;2066604;28;20271;-67
2020/12/25 04:52:13;;;;;;;2.53;1.43;;;;;19.80;100944.00;;;;2074991;28;20217;-67
2020/12/25 04:53:13;;;;;;;2.03;1.30;;;;;19.80;100945.00;;;;2067595;28;20224;-67
2020/12/25 04:54:14;;;;;;;3.13;1.60;;;;;19.80;100950.00;;;;2066218;28;20256;-67
2020/12/25 04:55:14;;;;;;;2.87;1.93;;;;;19.80;100953.00;;;;2067542;28;20221;-67
2020/12/25 04:56:14;;;;;;;2.43;1.30;;;;;19.80;100963.00;;;;2074873;28;20221;-67
2020/12/25 04:57:15;;;;;;;2.43;1.30;;;;;19.80;100973.00;;;;2076444;28;20216;-67